Skip Navigation Links Skip Navigation Links

Current Weather

Washington Dulles International, Washington

For information only: do not use for flight planning or navigation.
Latest weather
Observation time Sunday, August 1, 2021 5:08 AM EDT
Local time Sunday, August 1, 2021 5:56 AM EDT
Flight conditions Marginal Visual Meteorological Conditions
Winds
Wind speed calm
Visibility 10 mi.
Sky condition
Ceiling 2,000 ft. broken clouds
Cloud layer broken clouds 2,000 ft.
Cloud layer broken clouds 7,000 ft.
Cloud layer overcast 10,000 ft.
Temperature 69°F
Dewpoint 66°F
Altimeter 29.90 in.Hg
Derived measurements
Relative humidity 90%
Density altitude 1289 ft.
Remarks
Automated weather observing station with precipitation discriminator.
METAR KIAD 010908Z 00000KT 10SM BKN020 BKN070 OVC100 21/19 A2990 RMK AO2 T02060189

Settings

Location code

InnerDrive.Weather 4.0.6770.0 Release CLR 4.0.30319.42000
Copyright ©2018 Inner Drive Technology. All rights reserved. Portions Copyright ©1986-2018 David Braverman.

Find weather

Site navigation


Skip Navigation Links

Place info

Page info

PayPal - The safer, easier way to pay online!

Return home.

Copyright ©2021 Inner Drive Technology. Purveyors of fine, hand-crafted computer software. Page printed 2021-08-01T09:56:27 UTC.